Time;durP1;ratioP1;P1;durP2;ratioP2;P2;SDS_P1;SDS_P2;PMS_P1;PMS_P2;Temp;Humidity;BMP_temperature;BMP_pressure;BME280_temperature;BME280_humidity;BME280_pressure;Samples;Min_cycle;Max_cycle;Signal;HPM_P1;HPM_P2
2022/09/10 00:01:17;;;;;;;3.03;0.97;;;;;;;14.82;100.00;97951.50;5073124;28;20564;-71
2022/09/10 00:03:44;;;;;;;2.17;1.23;;;;;;;14.79;100.00;97939.41;5073164;28;20203;-71
2022/09/10 00:06:12;;;;;;;2.70;1.10;;;;;;;14.79;100.00;97934.06;5072887;28;20734;-71
2022/09/10 00:08:39;;;;;;;4.07;1.27;;;;;;;14.77;100.00;97941.53;5073062;28;20204;-71
2022/09/10 00:11:10;;;;;;;3.87;1.33;;;;;;;14.78;100.00;97935.13;5073863;28;20235;-71
2022/09/10 00:13:39;;;;;;;3.03;1.30;;;;;;;14.82;100.00;97933.56;5072606;28;20648;-71
2022/09/10 00:16:11;;;;;;;4.60;1.40;;;;;;;14.76;100.00;97925.72;5073018;28;20211;-71
2022/09/10 00:18:38;;;;;;;1.30;1.07;;;;;;;14.85;100.00;97930.41;5071735;28;20201;-71
2022/09/10 00:21:09;;;;;;;3.20;0.97;;;;;;;14.77;100.00;97924.66;5073264;28;20236;-71
2022/09/10 00:23:36;;;;;;;4.17;1.40;;;;;;;14.74;100.00;97920.63;5072439;28;20206;-71
2022/09/10 00:26:12;;;;;;;1.83;0.90;;;;;;;14.79;100.00;97923.34;5072995;28;20205;-71
2022/09/10 00:28:39;;;;;;;3.47;0.90;;;;;;;14.81;100.00;97915.91;5073084;28;20204;-71
2022/09/10 00:31:05;;;;;;;3.10;1.17;;;;;;;14.76;100.00;97915.03;5073568;28;20768;-71
2022/09/10 00:33:32;;;;;;;3.30;1.17;;;;;;;14.78;100.00;97921.75;5072087;28;20200;-71
2022/09/10 00:35:58;;;;;;;2.07;1.20;;;;;;;14.83;100.00;97924.47;5054960;28;20287;-71
2022/09/10 00:38:26;;;;;;;2.63;0.90;;;;;;;14.81;100.00;97929.28;5053952;28;20575;-71
2022/09/10 00:40:52;;;;;;;3.27;1.10;;;;;;;14.73;100.00;97927.03;5054466;28;20316;-72
2022/09/10 00:43:22;;;;;;;4.00;1.07;;;;;;;14.72;100.00;97917.41;5053626;28;20215;-71
2022/09/10 00:45:55;;;;;;;2.60;1.00;;;;;;;14.77;100.00;97919.31;5071705;28;20201;-71
2022/09/10 00:48:32;;;;;;;3.23;1.20;;;;;;;14.79;100.00;97918.00;5072599;28;20201;-71
2022/09/10 00:51:03;;;;;;;2.87;0.80;;;;;;;14.83;100.00;97929.84;5072205;28;20695;-71
2022/09/10 00:53:29;;;;;;;3.30;1.27;;;;;;;14.85;100.00;97927.75;5072234;28;20678;-71
2022/09/10 00:55:59;;;;;;;2.60;1.00;;;;;;;14.75;100.00;97930.25;5072082;28;20691;-71
2022/09/10 00:58:27;;;;;;;2.73;0.90;;;;;;;14.79;100.00;97934.06;5073415;28;20632;-71
2022/09/10 01:00:58;;;;;;;1.77;0.90;;;;;;;14.75;100.00;97932.94;5071834;28;20710;-71
2022/09/10 01:03:25;;;;;;;2.97;0.83;;;;;;;14.72;100.00;97929.97;5073605;28;20220;-71
2022/09/10 01:05:52;;;;;;;3.53;0.80;;;;;;;14.72;100.00;97922.75;5072183;28;20254;-71
2022/09/10 01:08:19;;;;;;;3.53;1.00;;;;;;;14.60;100.00;97922.03;5073567;28;20200;-71
2022/09/10 01:11:25;;;;;;;1.80;0.70;;;;;;;14.60;100.00;97937.31;5056032;28;20233;-71
2022/09/10 01:14:17;;;;;;;1.93;0.90;;;;;;;14.61;100.00;97933.56;5052677;28;20201;-71
2022/09/10 01:16:47;;;;;;;1.10;0.90;;;;;;;14.63;100.00;97936.78;5073117;28;20690;-71
2022/09/10 01:19:50;;;;;;;2.37;0.97;;;;;;;14.61;100.00;97939.72;5071571;28;20578;-71
2022/09/10 01:22:34;;;;;;;3.33;1.00;;;;;;;14.55;100.00;97931.84;5072329;28;20196;-71
2022/09/10 01:25:09;;;;;;;1.50;0.70;;;;;;;14.46;100.00;97930.66;5062015;28;20558;-72
2022/09/10 01:27:43;;;;;;;1.30;0.90;;;;;;;14.48;100.00;97917.88;5053019;28;20209;-71
2022/09/10 01:30:16;;;;;;;2.97;1.20;;;;;;;14.41;100.00;97930.59;5054491;28;20225;-71
2022/09/10 01:33:12;;;;;;;4.63;1.00;;;;;;;14.37;100.00;97937.47;5064191;28;20228;-71
2022/09/10 01:35:53;;;;;;;3.27;1.40;;;;;;;14.26;100.00;97947.25;5076288;28;20196;-71
2022/09/10 01:38:33;;;;;;;3.57;1.00;;;;;;;14.26;100.00;97949.09;5074448;28;20569;-71
2022/09/10 01:40:59;;;;;;;3.17;1.10;;;;;;;14.28;100.00;97933.59;5076928;28;20710;-71
2022/09/10 01:43:26;;;;;;;2.60;1.00;;;;;;;14.37;100.00;97932.13;5075520;28;20648;-71
2022/09/10 01:45:58;;;;;;;3.20;1.10;;;;;;;14.36;100.00;97930.53;5077234;28;20274;-71
2022/09/10 01:48:44;;;;;;;3.17;0.80;;;;;;;14.30;100.00;97932.31;5074914;28;20204;-71
2022/09/10 01:51:18;;;;;;;3.97;1.20;;;;;;;14.30;100.00;97929.63;5077048;28;20233;-71
2022/09/10 01:53:54;;;;;;;1.90;0.70;;;;;;;14.35;100.00;97918.22;5075599;28;20219;-71
2022/09/10 01:56:39;;;;;;;2.53;0.90;;;;;;;14.36;100.00;97926.00;5077038;28;20200;-71
2022/09/10 01:59:34;;;;;;;4.37;1.10;;;;;;;14.25;100.00;97918.06;5076033;28;20200;-71
2022/09/10 02:02:16;;;;;;;2.40;1.10;;;;;;;14.28;100.00;97918.38;5075555;28;20247;-71
2022/09/10 02:04:44;;;;;;;1.37;0.90;;;;;;;14.31;100.00;97919.75;5076883;28;20249;-71
2022/09/10 02:07:13;;;;;;;1.37;0.90;;;;;;;14.29;100.00;97920.00;5069350;28;20211;-71
2022/09/10 02:09:40;;;;;;;0.80;0.80;;;;;;;14.27;100.00;97919.44;5056680;28;20221;-71
2022/09/10 02:12:07;;;;;;;2.17;1.00;;;;;;;14.36;100.00;97919.81;5059926;28;20700;-71
2022/09/10 02:14:34;;;;;;;2.73;0.90;;;;;;;14.35;100.00;97924.38;5076612;28;20207;-71
2022/09/10 02:17:01;;;;;;;2.10;0.90;;;;;;;14.35;100.00;97924.38;5074039;28;20222;-71
2022/09/10 02:19:28;;;;;;;4.30;1.03;;;;;;;14.38;100.00;97923.88;5056744;28;20229;-71
2022/09/10 02:21:56;;;;;;;3.40;1.20;;;;;;;14.36;100.00;97919.81;5058240;28;20201;-71
2022/09/10 02:24:23;;;;;;;1.57;1.00;;;;;;;14.20;100.00;97921.47;5076413;28;20204;-71
2022/09/10 02:26:49;;;;;;;2.13;0.90;;;;;;;14.19;100.00;97921.69;5075049;28;20216;-71
2022/09/10 02:29:18;;;;;;;2.97;1.10;;;;;;;14.21;100.00;97923.09;5076352;28;20228;-71
2022/09/10 02:31:44;;;;;;;2.60;1.20;;;;;;;14.25;100.00;97923.41;5074767;28;20227;-71
2022/09/10 02:34:11;;;;;;;4.87;1.10;;;;;;;14.31;100.00;97923.25;5076298;28;20211;-71
2022/09/10 02:36:38;;;;;;;2.80;1.10;;;;;;;14.29;100.00;97901.28;5074564;28;20212;-71
2022/09/10 02:39:05;;;;;;;4.43;1.20;;;;;;;14.25;100.00;97918.88;5055313;28;20210;-71
2022/09/10 02:41:40;;;;;;;4.00;1.10;;;;;;;14.35;100.00;97910.19;5055621;28;20213;-71
2022/09/10 02:44:07;;;;;;;2.80;1.00;;;;;;;14.33;100.00;97912.31;5076555;28;20212;-71
2022/09/10 02:46:34;;;;;;;4.07;1.13;;;;;;;14.31;100.00;97909.88;5075922;28;20215;-70
2022/09/10 02:49:00;;;;;;;4.10;1.07;;;;;;;14.26;100.00;97915.16;5075157;28;20207;-71
2022/09/10 02:51:26;;;;;;;2.03;0.90;;;;;;;14.27;100.00;97903.41;5076524;28;20209;-71
2022/09/10 02:53:54;;;;;;;2.30;1.23;;;;;;;14.32;100.00;97906.16;5074489;28;20223;-71
2022/09/10 02:56:21;;;;;;;4.07;0.97;;;;;;;14.38;100.00;97899.81;5075637;28;20204;-71
2022/09/10 02:58:48;;;;;;;4.57;1.40;;;;;;;14.35;100.00;97905.66;5073604;28;20220;-71
2022/09/10 03:01:17;;;;;;;3.43;1.10;;;;;;;14.39;100.00;97904.09;5075788;28;20278;-71
2022/09/10 03:03:51;;;;;;;1.90;1.20;;;;;;;14.38;100.00;97902.47;5074085;28;20201;-71
2022/09/10 03:06:18;;;;;;;2.83;1.10;;;;;;;14.37;100.00;97903.53;5074168;28;20658;-71
2022/09/10 03:08:44;;;;;;;1.37;0.93;;;;;;;14.43;100.00;97902.53;5055078;28;20213;-71
2022/09/10 03:11:14;;;;;;;3.30;1.03;;;;;;;14.38;100.00;97899.81;5055537;28;20225;-71
2022/09/10 03:13:41;;;;;;;1.60;1.20;;;;;;;14.42;100.00;97900.94;5073025;28;20224;-71
2022/09/10 03:16:08;;;;;;;2.57;1.20;;;;;;;14.44;100.00;97901.50;5075356;28;20285;-71
2022/09/10 03:18:35;;;;;;;2.20;1.07;;;;;;;14.45;100.00;97900.44;5071631;28;20201;-71
2022/09/10 03:21:14;;;;;;;1.90;1.20;;;;;;;14.47;100.00;97903.66;5069818;28;20290;-71
2022/09/10 03:23:41;;;;;;;3.30;1.13;;;;;;;14.49;100.00;97890.88;5063889;28;20197;-71
2022/09/10 03:26:09;;;;;;;2.23;1.10;;;;;;;14.50;100.00;97903.19;5070752;28;20215;-71
2022/09/10 03:28:37;;;;;;;3.40;1.00;;;;;;;14.56;100.00;97894.16;5054901;28;20208;-71
2022/09/10 03:31:06;;;;;;;1.80;1.30;;;;;;;14.50;100.00;97895.16;5055381;28;20633;-71
2022/09/10 03:33:34;;;;;;;3.87;1.30;;;;;;;14.57;100.00;97903.81;5055047;28;20229;-71
2022/09/10 03:36:01;;;;;;;2.80;1.50;;;;;;;14.59;100.00;97904.38;5058300;28;20208;-71
2022/09/10 03:38:28;;;;;;;1.27;1.10;;;;;;;14.55;100.00;97903.25;5075573;28;20208;-71
2022/09/10 03:40:55;;;;;;;2.67;1.20;;;;;;;14.55;100.00;97897.91;5073481;28;20320;-70
2022/09/10 03:43:21;;;;;;;3.33;1.10;;;;;;;14.54;100.00;97893.63;5074620;28;20690;-71
2022/09/10 03:45:51;;;;;;;2.60;1.30;;;;;;;14.53;100.00;97891.19;5070822;28;20209;-71
2022/09/10 03:48:20;;;;;;;1.53;1.20;;;;;;;14.43;100.00;97889.16;5054903;28;20212;-71
2022/09/10 03:50:48;;;;;;;2.97;1.03;;;;;;;14.49;100.00;97882.03;5056242;28;20696;-71
2022/09/10 03:53:16;;;;;;;5.40;1.20;;;;;;;14.42;100.00;97889.44;5073690;28;20228;-71
2022/09/10 03:55:44;;;;;;;1.80;1.00;;;;;;;14.40;100.00;97892.34;5073136;28;20204;-71
2022/09/10 03:58:10;;;;;;;3.30;1.10;;;;;;;14.42;100.00;97895.59;5074601;28;20212;-71
2022/09/10 04:00:37;;;;;;;2.13;1.23;;;;;;;14.41;100.00;97898.50;5072501;28;20225;-71
2022/09/10 04:03:04;;;;;;;3.57;1.10;;;;;;;14.40;100.00;97889.69;5072926;28;20213;-71
2022/09/10 04:05:31;;;;;;;3.20;1.20;;;;;;;14.38;100.00;97897.13;5072707;28;20721;-71
2022/09/10 04:07:58;;;;;;;1.00;0.90;;;;;;;14.39;100.00;97898.75;5054156;28;20292;-71
2022/09/10 04:10:31;;;;;;;3.20;1.30;;;;;;;14.35;100.00;97896.81;5055392;28;20225;-71
2022/09/10 04:12:57;;;;;;;3.33;1.27;;;;;;;14.38;100.00;97894.44;5072493;28;20694;-71
2022/09/10 04:15:24;;;;;;;5.00;1.30;;;;;;;14.37;100.00;97894.69;5074066;28;20322;-71
2022/09/10 04:17:51;;;;;;;2.43;1.10;;;;;;;14.35;100.00;97892.28;5073774;28;20667;-71
2022/09/10 04:20:22;;;;;;;5.07;1.30;;;;;;;14.36;100.00;97887.72;5072610;28;20232;-71
2022/09/10 04:22:50;;;;;;;2.73;1.07;;;;;;;14.37;100.00;97889.34;5073827;28;20611;-71
2022/09/10 04:25:18;;;;;;;2.00;1.10;;;;;;;14.33;100.00;97885.56;5072646;28;20209;-71
2022/09/10 04:27:45;;;;;;;4.67;1.10;;;;;;;14.33;100.00;97899.72;5073682;28;20671;-71
2022/09/10 04:30:12;;;;;;;3.33;1.00;;;;;;;14.31;100.00;97891.16;5072351;28;20224;-71
2022/09/10 04:32:39;;;;;;;4.57;1.03;;;;;;;14.24;100.00;97898.53;5073551;28;20224;-71
2022/09/10 04:35:06;;;;;;;2.70;1.00;;;;;;;14.28;100.00;97905.00;5071604;28;20222;-71
2022/09/10 04:37:33;;;;;;;1.20;0.93;;;;;;;14.29;100.00;97903.94;5073917;28;20204;-71
2022/09/10 04:39:59;;;;;;;3.87;1.07;;;;;;;14.29;100.00;97895.13;5057344;28;20228;-71
2022/09/10 04:42:27;;;;;;;1.53;0.80;;;;;;;14.23;100.00;97896.91;5053886;28;20205;-71
2022/09/10 04:44:53;;;;;;;1.63;0.97;;;;;;;14.31;100.00;97906.38;5067030;28;20645;-71
2022/09/10 04:47:20;;;;;;;2.20;1.00;;;;;;;14.29;100.00;97905.84;5072255;28;20208;-71
2022/09/10 04:49:46;;;;;;;2.17;1.00;;;;;;;14.30;100.00;97908.25;5072068;28;20274;-71
2022/09/10 04:52:13;;;;;;;1.10;0.90;;;;;;;14.28;100.00;97909.53;5073553;28;20205;-71
2022/09/10 04:54:40;;;;;;;2.40;1.03;;;;;;;14.32;100.00;97905.31;5072167;28;20212;-71
2022/09/10 04:57:07;;;;;;;3.80;1.00;;;;;;;14.28;100.00;97913.03;5073390;28;20683;-71
2022/09/10 04:59:34;;;;;;;1.67;1.00;;;;;;;14.36;100.00;97915.28;5057852;28;20233;-71
2022/09/10 05:02:01;;;;;;;2.47;0.90;;;;;;;14.33;100.00;97917.66;5069345;28;20205;-71
2022/09/10 05:04:27;;;;;;;2.43;1.00;;;;;;;14.35;100.00;97919.03;5063962;28;20200;-71
2022/09/10 05:06:54;;;;;;;1.87;1.03;;;;;;;14.31;100.00;97923.25;5061663;28;20567;-71
2022/09/10 05:09:20;;;;;;;1.93;0.70;;;;;;;14.36;100.00;97917.16;5058365;28;20235;-71
2022/09/10 05:11:48;;;;;;;1.80;0.90;;;;;;;14.36;100.00;97914.47;5062321;28;20204;-71
2022/09/10 05:14:15;;;;;;;0.90;0.83;;;;;;;14.42;100.00;97916.97;5058454;28;20232;-71
2022/09/10 05:16:42;;;;;;;2.23;0.80;;;;;;;14.36;100.00;97920.66;5063149;28;20208;-71
2022/09/10 05:19:16;;;;;;;3.63;1.00;;;;;;;14.33;100.00;97933.72;5073456;28;20192;-71
2022/09/10 05:21:42;;;;;;;2.27;0.80;;;;;;;14.41;100.00;97927.91;5065272;28;20279;-71
2022/09/10 05:24:09;;;;;;;2.73;1.00;;;;;;;14.34;100.00;97929.97;5053407;28;20232;-71
2022/09/10 05:26:35;;;;;;;1.97;0.87;;;;;;;14.35;100.00;97931.59;5059911;28;20299;-71
2022/09/10 05:29:02;;;;;;;1.43;0.87;;;;;;;14.37;100.00;97932.13;5073073;28;20206;-71
2022/09/10 05:31:28;;;;;;;1.10;0.90;;;;;;;14.35;100.00;97929.72;5073192;28;20204;-71
2022/09/10 05:33:54;;;;;;;2.97;0.70;;;;;;;14.40;100.00;97934.34;5064718;28;20220;-71
2022/09/10 05:36:21;;;;;;;1.60;0.90;;;;;;;14.38;100.00;97929.22;5053148;28;20239;-71
2022/09/10 05:38:48;;;;;;;3.03;1.00;;;;;;;14.42;100.00;97922.31;5052989;28;20201;-71
2022/09/10 05:41:14;;;;;;;1.03;0.70;;;;;;;14.41;100.00;97926.06;5052730;28;20631;-71
2022/09/10 05:43:40;;;;;;;1.97;0.80;;;;;;;14.47;100.00;97918.94;5065411;28;20228;-71
2022/09/10 05:46:07;;;;;;;1.70;0.70;;;;;;;14.44;100.00;97920.22;5057093;28;20212;-70
2022/09/10 05:48:33;;;;;;;1.17;0.83;;;;;;;14.49;100.00;97916.81;5052823;28;20763;-70
2022/09/10 05:51:00;;;;;;;1.80;0.70;;;;;;;14.57;100.00;97924.41;5052017;28;20226;-71
2022/09/10 05:53:26;;;;;;;2.50;0.80;;;;;;;14.43;100.00;97910.56;5054762;28;20217;-71
2022/09/10 05:55:53;;;;;;;2.27;0.80;;;;;;;14.49;100.00;97911.47;5053225;28;20228;-71
2022/09/10 05:58:19;;;;;;;2.93;0.90;;;;;;;14.46;100.00;97919.97;5052808;28;20223;-71
2022/09/10 06:00:49;;;;;;;3.53;0.90;;;;;;;14.44;100.00;97916.75;5055669;28;20240;-71
2022/09/10 06:03:15;;;;;;;2.30;0.83;;;;;;;14.45;100.00;97921.03;5063176;28;20223;-71
2022/09/10 06:05:49;;;;;;;2.77;1.00;;;;;;;14.46;100.00;97922.63;5065310;28;20213;-71
2022/09/10 06:08:16;;;;;;;0.77;0.70;;;;;;;14.44;100.00;97922.09;5071271;28;20208;-71
2022/09/10 06:10:42;;;;;;;2.10;0.97;;;;;;;14.47;100.00;97929.63;5060888;28;20753;-71
2022/09/10 06:13:10;;;;;;;2.50;0.93;;;;;;;14.51;100.00;97928.88;5052329;28;20663;-71
2022/09/10 06:15:37;;;;;;;0.83;0.80;;;;;;;14.56;100.00;97936.97;5053335;28;20255;-71
2022/09/10 06:18:04;;;;;;;4.27;0.90;;;;;;;14.59;100.00;97941.84;5055587;28;20691;-71
2022/09/10 06:20:30;;;;;;;2.73;1.00;;;;;;;14.69;100.00;97939.28;5056522;28;20304;-71
2022/09/10 06:22:57;;;;;;;2.57;0.90;;;;;;;14.69;100.00;97938.47;5057947;28;20232;-71
2022/09/10 06:25:23;;;;;;;1.60;1.00;;;;;;;14.66;100.00;97942.44;5056228;28;20560;-71
2022/09/10 06:27:50;;;;;;;2.07;0.80;;;;;;;14.66;100.00;97933.63;5055557;28;20216;-71
2022/09/10 06:30:16;;;;;;;2.87;0.80;;;;;;;14.71;100.00;97937.19;5056167;28;20247;-71
2022/09/10 06:32:42;;;;;;;1.23;0.90;;;;;;;14.74;100.00;97933.22;5058471;28;20213;-71
2022/09/10 06:35:09;;;;;;;2.40;0.90;;;;;;;14.76;100.00;97936.44;5056017;28;20280;-71
2022/09/10 06:37:35;;;;;;;2.87;0.87;;;;;;;14.77;100.00;97938.88;5066938;28;20205;-71
2022/09/10 06:40:02;;;;;;;1.50;0.90;;;;;;;14.82;100.00;97941.59;5075922;28;20589;-71
2022/09/10 06:42:32;;;;;;;1.33;0.90;;;;;;;14.87;100.00;97938.16;5061915;28;20215;-71
2022/09/10 06:45:00;;;;;;;2.57;1.03;;;;;;;14.90;100.00;97943.84;5055474;28;20186;-71
2022/09/10 06:47:26;;;;;;;2.23;0.90;;;;;;;14.94;100.00;97942.31;5055460;28;20209;-71
2022/09/10 06:49:52;;;;;;;1.47;0.87;;;;;;;14.95;100.00;97954.63;5055801;28;20221;-71
2022/09/10 06:52:19;;;;;;;4.03;0.70;;;;;;;14.95;100.00;97956.47;5055339;28;20296;-72
2022/09/10 06:54:47;;;;;;;1.67;0.70;;;;;;;14.98;100.00;97956.81;5055681;28;20232;-71
2022/09/10 06:57:13;;;;;;;1.80;0.70;;;;;;;15.06;100.00;97964.38;5057765;28;20288;-71
2022/09/10 06:59:40;;;;;;;1.47;0.80;;;;;;;15.06;100.00;97959.03;5055600;28;20225;-71
2022/09/10 07:02:06;;;;;;;2.80;0.87;;;;;;;15.09;100.00;97961.22;5054992;28;20260;-71
2022/09/10 07:04:32;;;;;;;2.70;0.70;;;;;;;15.12;100.00;97958.06;5055369;28;20201;-71
2022/09/10 07:06:59;;;;;;;1.37;0.70;;;;;;;15.17;100.00;97958.13;5054569;28;20208;-71
2022/09/10 07:09:26;;;;;;;1.43;0.80;;;;;;;15.17;100.00;97971.50;5053007;28;20260;-71
2022/09/10 07:11:52;;;;;;;3.47;0.80;;;;;;;15.15;100.00;97970.13;5053414;28;20211;-72
2022/09/10 07:14:19;;;;;;;0.90;0.60;;;;;;;15.20;100.00;97976.34;5053540;28;20634;-71
2022/09/10 07:16:46;;;;;;;1.23;0.90;;;;;;;15.28;100.00;97970.56;5053411;28;20300;-71
2022/09/10 07:19:13;;;;;;;1.67;0.60;;;;;;;15.30;100.00;97984.53;5054021;28;20212;-71
2022/09/10 07:21:40;;;;;;;3.30;0.87;;;;;;;15.39;100.00;97985.72;5056174;28;20577;-71
2022/09/10 07:24:07;;;;;;;0.63;0.60;;;;;;;15.46;100.00;97989.00;5063489;28;20648;-71
2022/09/10 07:26:33;;;;;;;0.83;0.60;;;;;;;15.46;100.00;97996.22;5071485;28;20205;-71
2022/09/10 07:29:00;;;;;;;1.27;0.67;;;;;;;15.40;100.00;97997.22;5054392;28;20209;-71
2022/09/10 07:31:36;;;;;;;2.10;0.90;;;;;;;15.38;100.00;97999.38;5054253;28;20660;-71
2022/09/10 07:34:03;;;;;;;1.33;0.80;;;;;;;15.36;100.00;98004.16;5061490;28;20240;-71
2022/09/10 07:36:30;;;;;;;2.00;0.80;;;;;;;15.49;100.00;98001.09;5054097;28;20215;-71
2022/09/10 07:39:00;;;;;;;5.63;0.90;;;;;;;15.53;100.00;98010.25;5057203;28;20209;-71
2022/09/10 07:41:28;;;;;;;1.07;0.83;;;;;;;15.63;100.00;98005.81;5054896;28;20213;-71
2022/09/10 07:43:55;;;;;;;0.80;0.80;;;;;;;15.69;100.00;98020.88;5054187;28;20198;-71
2022/09/10 07:46:24;;;;;;;1.13;0.73;;;;;;;15.73;100.00;98016.63;5065012;28;20201;-71
2022/09/10 07:48:55;;;;;;;2.57;0.90;;;;;;;15.77;100.00;98020.44;5073142;28;20659;-71
2022/09/10 07:51:22;;;;;;;1.23;0.80;;;;;;;15.88;100.00;98018.66;5068558;28;20669;-71
2022/09/10 07:53:54;;;;;;;3.53;0.90;;;;;;;15.94;100.00;98018.47;5074702;28;20237;-71
2022/09/10 07:56:21;;;;;;;2.90;0.90;;;;;;;15.97;100.00;98034.03;5063228;28;20676;-71
2022/09/10 07:58:47;;;;;;;1.30;0.60;;;;;;;16.18;100.00;98024.28;5054065;28;20206;-72
2022/09/10 08:01:14;;;;;;;1.40;0.60;;;;;;;16.39;100.00;98037.66;5057121;28;20225;-72
2022/09/10 08:03:40;;;;;;;1.67;0.67;;;;;;;16.57;100.00;98026.53;5056033;28;20722;-71
2022/09/10 08:06:08;;;;;;;0.70;0.70;;;;;;;16.70;100.00;98027.97;5054027;28;20205;-71
2022/09/10 08:08:38;;;;;;;1.70;0.93;;;;;;;16.63;100.00;98030.06;5056381;28;20267;-71
2022/09/10 08:11:11;;;;;;;1.00;0.87;;;;;;;16.63;100.00;98030.88;5056286;28;20229;-72
2022/09/10 08:13:40;;;;;;;2.00;0.90;;;;;;;16.54;100.00;98035.09;5053500;28;20251;-72
2022/09/10 08:16:12;;;;;;;1.00;0.80;;;;;;;16.59;100.00;98035.13;5053877;28;20201;-71
2022/09/10 08:18:39;;;;;;;2.00;0.80;;;;;;;16.68;100.00;98036.28;5052071;28;20235;-71
2022/09/10 08:21:07;;;;;;;3.30;0.80;;;;;;;16.55;100.00;98039.41;5052924;28;20235;-71
2022/09/10 08:23:34;;;;;;;1.87;0.77;;;;;;;16.63;100.00;98040.78;5053778;28;20239;-71
2022/09/10 08:26:01;;;;;;;2.87;0.70;;;;;;;16.76;100.00;98032.31;5052946;28;20216;-71
2022/09/10 08:28:29;;;;;;;1.07;0.60;;;;;;;16.74;100.00;98032.56;5053753;28;20212;-71
2022/09/10 08:31:00;;;;;;;1.87;0.73;;;;;;;17.00;100.00;98031.66;5053475;28;20225;-71
2022/09/10 08:33:28;;;;;;;1.93;0.80;;;;;;;16.95;94.79;98039.69;5053583;28;20692;-72
2022/09/10 08:35:59;;;;;;;2.87;0.80;;;;;;;16.85;93.53;98044.16;5053386;28;20197;-71
2022/09/10 08:38:29;;;;;;;2.30;0.80;;;;;;;17.03;96.15;98041.88;5053116;28;20652;-71
2022/09/10 08:40:56;;;;;;;1.97;0.80;;;;;;;17.04;94.52;98046.19;5053277;28;20225;-72
2022/09/10 08:43:41;;;;;;;2.20;0.80;;;;;;;17.04;96.32;98045.34;5053650;28;20205;-71
2022/09/10 08:46:16;;;;;;;1.00;0.60;;;;;;;16.93;96.28;98041.00;5053225;28;20201;-72
2022/09/10 08:48:45;;;;;;;1.90;0.80;;;;;;;16.95;100.00;98047.75;5053791;28;20195;-71
2022/09/10 08:51:24;;;;;;;1.80;0.70;;;;;;;17.00;100.00;98046.94;5056225;28;20325;-71
2022/09/10 08:54:06;;;;;;;1.27;0.67;;;;;;;17.05;100.00;98047.00;5070751;28;20579;-71
2022/09/10 08:56:32;;;;;;;1.70;0.80;;;;;;;17.21;98.85;98052.19;5059533;28;20201;-71
2022/09/10 08:59:04;;;;;;;2.30;0.70;;;;;;;17.18;93.08;98052.69;5053562;28;20205;-71
2022/09/10 09:01:52;;;;;;;5.63;0.90;;;;;;;17.01;94.51;98046.69;5051888;28;20205;-71
2022/09/10 09:04:43;;;;;;;2.00;0.77;;;;;;;17.09;96.36;98054.25;5053346;28;20186;-71
2022/09/10 09:07:14;;;;;;;3.13;0.67;;;;;;;17.06;91.96;98049.41;5052656;28;20292;-71
2022/09/10 09:09:40;;;;;;;2.47;0.73;;;;;;;17.23;97.62;98052.72;5052955;28;20225;-72
2022/09/10 09:12:18;;;;;;;1.50;0.90;;;;;;;17.07;100.00;98047.53;5052912;28;20209;-71
2022/09/10 09:14:54;;;;;;;2.00;0.80;;;;;;;17.21;94.12;98048.69;5053286;28;20209;-71
2022/09/10 09:17:23;;;;;;;1.53;0.80;;;;;;;17.35;95.54;98050.66;5050196;28;20212;-71
2022/09/10 09:20:11;;;;;;;2.47;1.10;;;;;;;17.47;89.57;98051.25;5052697;28;20221;-71
2022/09/10 09:22:46;;;;;;;2.03;0.87;;;;;;;17.55;90.30;98041.91;5052913;28;20687;-71
2022/09/10 09:25:32;;;;;;;2.47;1.00;;;;;;;17.47;89.78;98045.09;5052829;28;20196;-71
2022/09/10 09:27:59;;;;;;;2.47;1.10;;;;;;;17.36;88.14;98054.13;5052039;28;20564;-71
2022/09/10 09:30:39;;;;;;;3.43;1.03;;;;;;;17.29;91.70;98050.88;5051631;28;20221;-71
2022/09/10 09:33:19;;;;;;;3.27;1.20;;;;;;;17.32;86.17;98043.09;5072600;28;20200;-71
2022/09/10 09:35:51;;;;;;;2.43;1.03;;;;;;;17.40;80.17;98050.69;5068273;28;20213;-72
2022/09/10 09:38:22;;;;;;;3.53;1.10;;;;;;;17.42;79.29;98053.91;5052859;28;20300;-71
2022/09/10 09:41:11;;;;;;;2.77;0.77;;;;;;;17.51;77.79;98055.03;5052507;28;20225;-71
2022/09/10 09:43:58;;;;;;;3.23;1.13;;;;;;;17.46;80.49;98059.59;5052986;28;20216;-71
2022/09/10 09:46:24;;;;;;;4.87;1.40;;;;;;;17.44;79.91;98061.72;5055999;28;20204;-71
2022/09/10 09:49:05;;;;;;;2.70;0.93;;;;;;;17.44;80.96;98056.34;5072562;28;20208;-71
2022/09/10 09:51:34;;;;;;;3.23;1.00;;;;;;;17.32;81.64;98053.84;5065173;28;20223;-71
2022/09/10 09:54:07;;;;;;;1.33;0.70;;;;;;;17.36;79.11;98048.75;5056481;28;20772;-71
2022/09/10 09:56:45;;;;;;;3.00;1.20;;;;;;;17.34;82.17;98056.28;5056311;28;20284;-71
2022/09/10 09:59:27;;;;;;;3.53;1.20;;;;;;;17.42;78.60;98053.91;5056255;28;20190;-71
2022/09/10 10:01:57;;;;;;;2.40;0.90;;;;;;;17.38;81.01;98046.63;5055564;28;20212;-71
2022/09/10 10:04:29;;;;;;;1.47;0.80;;;;;;;17.52;80.79;98043.22;5055155;28;20255;-72
2022/09/10 10:06:58;;;;;;;2.97;0.80;;;;;;;17.58;81.23;98046.72;5055969;28;20545;-71
2022/09/10 10:09:49;;;;;;;2.00;0.80;;;;;;;17.68;82.33;98049.44;5056540;28;20229;-71
2022/09/10 10:12:20;;;;;;;3.30;1.13;;;;;;;17.70;80.56;98056.19;5055995;28;20205;-71
2022/09/10 10:14:47;;;;;;;4.13;1.20;;;;;;;17.72;82.79;98053.22;5055109;28;20235;-71
2022/09/10 10:17:34;;;;;;;2.10;1.20;;;;;;;17.56;82.53;98055.03;5057214;28;20213;-71
2022/09/10 10:20:03;;;;;;;3.97;1.80;;;;;;;17.54;79.19;98057.19;5056199;28;20257;-71
2022/09/10 10:22:30;;;;;;;2.23;1.30;;;;;;;17.49;79.00;98051.00;5055798;28;20213;-71
2022/09/10 10:24:57;;;;;;;2.87;1.13;;;;;;;17.41;79.49;98049.63;5056296;28;20232;-71
2022/09/10 10:27:37;;;;;;;4.13;1.10;;;;;;;17.33;77.25;98042.03;5055792;28;20205;-71
2022/09/10 10:30:12;;;;;;;1.40;0.93;;;;;;;17.40;81.10;98044.50;5055916;28;20221;-71
2022/09/10 10:32:39;;;;;;;3.40;1.50;;;;;;;17.27;86.46;98040.38;5055361;28;20220;-71
2022/09/10 10:35:19;;;;;;;2.67;1.00;;;;;;;16.90;86.29;98038.84;5055492;28;20232;-71
2022/09/10 10:38:07;;;;;;;1.63;1.10;;;;;;;16.91;88.42;98048.50;5055845;28;20528;-71
2022/09/10 10:40:37;;;;;;;4.03;1.23;;;;;;;16.93;87.81;98039.16;5054988;28;20213;-72
2022/09/10 10:43:42;;;;;;;1.60;0.80;;;;;;;17.02;93.65;98040.28;5054455;28;20202;-71
2022/09/10 10:46:24;;;;;;;2.90;0.93;;;;;;;17.04;90.00;98034.63;5063763;28;20209;-71
2022/09/10 10:49:05;;;;;;;2.27;1.27;;;;;;;17.00;91.89;98038.88;5055575;28;20699;-71
2022/09/10 10:51:44;;;;;;;2.67;1.00;;;;;;;16.88;92.79;98043.66;5055394;28;20209;-71
2022/09/10 10:54:34;;;;;;;1.20;0.90;;;;;;;16.63;93.46;98038.94;5055505;28;20220;-71
2022/09/10 10:57:37;;;;;;;3.37;1.07;;;;;;;16.80;97.82;98031.53;5054921;28;20215;-72
2022/09/10 11:00:09;;;;;;;2.10;1.00;;;;;;;16.89;95.98;98027.31;5054579;28;20229;-72
2022/09/10 11:03:03;;;;;;;2.87;1.10;;;;;;;17.01;93.60;98025.19;5054346;28;20221;-72
2022/09/10 11:05:53;;;;;;;2.73;1.07;;;;;;;17.27;90.93;98024.25;5054306;28;20205;-72
2022/09/10 11:08:50;;;;;;;2.27;1.27;;;;;;;17.26;89.10;98021.84;5055072;28;20201;-72
2022/09/10 11:11:33;;;;;;;1.90;0.93;;;;;;;17.30;87.33;98025.63;5055306;28;20573;-72
2022/09/10 11:14:20;;;;;;;2.17;1.53;;;;;;;17.23;86.96;98025.84;5054794;28;20212;-72
2022/09/10 11:16:53;;;;;;;2.53;1.10;;;;;;;17.21;85.74;98028.00;5055105;28;20338;-72
2022/09/10 11:19:37;;;;;;;2.77;1.70;;;;;;;17.33;86.95;98023.22;5059674;28;20240;-72
2022/09/10 11:22:13;;;;;;;2.27;1.57;;;;;;;17.34;86.52;98014.09;5055618;28;20192;-70
2022/09/10 11:24:49;;;;;;;4.90;1.10;;;;;;;17.34;87.32;98019.47;5066044;28;20200;-70
2022/09/10 11:27:26;;;;;;;3.13;1.20;;;;;;;17.57;86.53;98016.38;5055236;28;20189;-70
2022/09/10 11:30:02;;;;;;;2.77;2.37;;;;;;;18.08;83.40;98009.19;5069585;28;20228;-70
2022/09/10 11:33:01;;;;;;;1.90;1.00;;;;;;;18.47;79.13;98013.84;5074941;28;20556;-69
2022/09/10 11:35:43;;;;;;;2.00;1.23;;;;;;;18.46;78.15;98009.50;5063210;28;20216;-70
2022/09/10 11:38:59;;;;;;;1.33;0.80;;;;;;;18.50;76.88;98005.19;5071575;28;20205;-70
2022/09/10 11:41:31;;;;;;;1.53;0.73;;;;;;;18.51;75.90;98006.81;5053553;28;20206;-70
2022/09/10 11:44:43;;;;;;;1.10;0.83;;;;;;;18.45;80.45;97996.31;5053733;28;20656;-70
2022/09/10 11:47:22;;;;;;;2.87;1.00;;;;;;;18.12;74.30;98008.41;5049349;28;20213;-70